createdAt,value
2023-05-01T00:02:53.150Z,100921.46
2023-05-01T00:05:21.282Z,100920.70
2023-05-01T00:07:49.837Z,100917.89
2023-05-01T00:10:19.480Z,100917.38
2023-05-01T00:12:47.536Z,100913.98
2023-05-01T00:15:15.787Z,100909.83
2023-05-01T00:17:43.900Z,100909.21
2023-05-01T00:20:12.156Z,100906.42
2023-05-01T00:22:40.277Z,100911.09
2023-05-01T00:25:08.819Z,100906.07
2023-05-01T00:27:37.099Z,100903.30
2023-05-01T00:30:06.088Z,100899.13
2023-05-01T00:32:34.663Z,100895.12
2023-05-01T00:35:02.821Z,100893.16
2023-05-01T00:37:31.209Z,100893.39
2023-05-01T00:39:59.652Z,100889.94
2023-05-01T00:42:27.916Z,100891.17
2023-05-01T00:44:56.020Z,100891.22
2023-05-01T00:47:24.196Z,100885.88
2023-05-01T00:49:53.265Z,100880.41
2023-05-01T00:52:21.435Z,100880.56
2023-05-01T00:54:52.222Z,100879.05
2023-05-01T00:57:20.992Z,100880.77
2023-05-01T00:59:49.510Z,100880.61
2023-05-01T01:02:17.618Z,100880.36
2023-05-01T01:04:48.223Z,100880.41
2023-05-01T01:07:34.691Z,100878.51
2023-05-01T01:10:10.381Z,100881.46
2023-05-01T01:12:46.060Z,100881.30
2023-05-01T01:15:22.364Z,100881.09
2023-05-01T01:18:09.926Z,100879.04
2023-05-01T01:20:45.605Z,100879.80
2023-05-01T01:23:25.768Z,100874.77
2023-05-01T01:25:57.161Z,100876.38
2023-05-01T01:28:40.192Z,100872.92
2023-05-01T01:31:21.109Z,100876.05
2023-05-01T01:34:27.840Z,100869.59
2023-05-01T01:37:13.345Z,100868.65
2023-05-01T01:40:10.516Z,100868.23
2023-05-01T01:42:43.331Z,100865.88
2023-05-01T01:45:22.056Z,100862.81
2023-05-01T01:47:52.414Z,100860.85
2023-05-01T01:50:24.869Z,100859.66
2023-05-01T01:52:54.929Z,100858.88
2023-05-01T01:55:25.466Z,100858.90
2023-05-01T01:57:54.369Z,100853.40
2023-05-01T02:00:23.574Z,100853.38
2023-05-01T02:02:53.887Z,100852.83
2023-05-01T02:05:24.340Z,100848.98
2023-05-01T02:07:53.212Z,100848.20
2023-05-01T02:10:23.224Z,100844.29
2023-05-01T02:12:53.313Z,100846.59
2023-05-01T02:15:21.465Z,100845.86
2023-05-01T02:17:51.395Z,100842.38
2023-05-01T02:20:21.731Z,100841.98
2023-05-01T02:22:53.363Z,100838.71
2023-05-01T02:25:22.343Z,100836.50
2023-05-01T02:27:53.173Z,100833.69
2023-05-01T02:30:21.394Z,100831.80
2023-05-01T02:32:49.535Z,100830.85
2023-05-01T02:35:17.969Z,100831.12
2023-05-01T02:37:46.444Z,100827.34
2023-05-01T02:40:15.317Z,100830.95
2023-05-01T02:42:45.131Z,100831.15
2023-05-01T02:45:20.007Z,100828.41
2023-05-01T02:47:55.279Z,100826.16
2023-05-01T02:50:24.685Z,100826.95
2023-05-01T02:52:54.154Z,100827.17
2023-05-01T02:55:22.510Z,100828.91
2023-05-01T02:57:53.566Z,100825.47
2023-05-01T03:00:21.830Z,100828.20
2023-05-01T03:02:49.904Z,100822.96
2023-05-01T03:05:18.086Z,100816.29
2023-05-01T03:07:47.447Z,100819.80
2023-05-01T03:10:15.825Z,100819.20
2023-05-01T03:12:44.478Z,100816.73
2023-05-01T03:15:13.142Z,100817.08
2023-05-01T03:17:41.318Z,100810.58
2023-05-01T03:20:11.144Z,100805.13
2023-05-01T03:22:40.277Z,100805.14
2023-05-01T03:25:09.504Z,100803.89
2023-05-01T03:27:37.596Z,100806.41
2023-05-01T03:30:06.359Z,100801.65
2023-05-01T03:32:34.900Z,100805.38
2023-05-01T03:35:03.143Z,100803.44
2023-05-01T03:37:31.530Z,100802.66
2023-05-01T03:39:59.984Z,100804.02
2023-05-01T03:42:28.242Z,100802.80
2023-05-01T03:44:56.369Z,100804.61
2023-05-01T03:47:24.468Z,100803.71
2023-05-01T03:49:52.750Z,100801.19
2023-05-01T03:52:20.874Z,100799.38
2023-05-01T03:54:50.050Z,100799.57
2023-05-01T03:57:18.232Z,100796.97
2023-05-01T03:59:47.483Z,100799.59
2023-05-01T04:02:15.586Z,100795.16
2023-05-01T04:04:44.162Z,100797.30
2023-05-01T04:07:13.275Z,100798.37
2023-05-01T04:09:41.493Z,100797.95
2023-05-01T04:12:09.855Z,100798.90
2023-05-01T04:14:37.921Z,100798.73
2023-05-01T04:17:06.303Z,100799.54
2023-05-01T04:19:34.923Z,100795.17
2023-05-01T04:22:02.969Z,100797.14
2023-05-01T04:24:31.052Z,100791.80
2023-05-01T04:26:59.274Z,100791.45
2023-05-01T04:29:27.384Z,100794.86
2023-05-01T04:31:55.479Z,100794.42
2023-05-01T04:34:23.859Z,100793.52
2023-05-01T04:36:51.987Z,100791.30
2023-05-01T04:39:20.098Z,100790.23
2023-05-01T04:41:48.204Z,100792.36
2023-05-01T04:44:16.605Z,100789.30
2023-05-01T04:46:45.093Z,100797.79
2023-05-01T04:49:13.300Z,100792.04
2023-05-01T04:51:41.722Z,100789.61
2023-05-01T04:54:09.778Z,100788.23
2023-05-01T04:56:37.931Z,100793.91
2023-05-01T04:59:06.571Z,100792.96
2023-05-01T05:01:34.608Z,100793.56
2023-05-01T05:04:03.016Z,100794.84
2023-05-01T05:06:31.938Z,100788.06
2023-05-01T05:09:00.081Z,100787.60
2023-05-01T05:11:28.213Z,100792.61
2023-05-01T05:13:56.304Z,100790.77
2023-05-01T05:16:24.509Z,100790.58
2023-05-01T05:18:52.646Z,100791.14
2023-05-01T05:21:20.743Z,100791.76
2023-05-01T05:23:48.893Z,100792.33
2023-05-01T05:26:17.052Z,100787.74
2023-05-01T05:28:45.752Z,100785.64
2023-05-01T05:31:13.905Z,100785.27
2023-05-01T05:33:42.098Z,100785.69
2023-05-01T05:36:10.426Z,100782.85
2023-05-01T05:38:38.751Z,100785.97
2023-05-01T05:41:06.970Z,100786.11
2023-05-01T05:43:35.048Z,100785.05
2023-05-01T05:46:03.249Z,100789.69
2023-05-01T05:48:31.465Z,100786.48
2023-05-01T05:50:59.581Z,100785.08
2023-05-01T05:53:27.606Z,100777.75
2023-05-01T05:55:56.078Z,100775.27
2023-05-01T05:58:24.770Z,100776.92
2023-05-01T06:00:59.338Z,100779.49
2023-05-01T06:03:27.690Z,100770.49
2023-05-01T06:05:56.170Z,100772.58
2023-05-01T06:08:24.389Z,100771.49
2023-05-01T06:10:52.564Z,100772.21
2023-05-01T06:13:20.773Z,100773.98
2023-05-01T06:15:49.103Z,100774.29
2023-05-01T06:18:17.554Z,100772.05
2023-05-01T06:20:47.354Z,100771.52
2023-05-01T06:23:16.393Z,100771.36
2023-05-01T06:25:44.572Z,100767.17
2023-05-01T06:28:12.653Z,100766.89
2023-05-01T06:30:40.805Z,100771.68
2023-05-01T06:33:10.432Z,100772.87
2023-05-01T06:35:41.586Z,100767.92
2023-05-01T06:38:09.695Z,100770.36
2023-05-01T06:40:37.751Z,100770.36
2023-05-01T06:43:05.974Z,100767.20
2023-05-01T06:45:34.140Z,100766.84
2023-05-01T06:48:02.480Z,100764.98
2023-05-01T06:50:30.712Z,100763.61
2023-05-01T06:53:01.080Z,100758.73
2023-05-01T06:55:35.209Z,100752.77
2023-05-01T06:58:16.026Z,100751.85
2023-05-01T07:00:51.569Z,100746.63
2023-05-01T07:03:19.767Z,100742.86
2023-05-01T07:05:48.589Z,100740.31
2023-05-01T07:08:16.658Z,100735.25
2023-05-01T07:10:44.790Z,100736.19
2023-05-01T07:13:12.897Z,100735.40
2023-05-01T07:15:40.936Z,100730.53
2023-05-01T07:18:09.906Z,100732.13
2023-05-01T07:20:38.155Z,100726.98
2023-05-01T07:23:07.521Z,100724.77
2023-05-01T07:25:44.488Z,100726.51
2023-05-01T07:28:12.625Z,100727.27
2023-05-01T07:30:40.854Z,100717.86
2023-05-01T07:33:08.928Z,100723.48
2023-05-01T07:35:37.533Z,100719.18
2023-05-01T07:38:05.733Z,100720.27
2023-05-01T07:40:34.969Z,100723.27
2023-05-01T07:43:03.075Z,100717.52
2023-05-01T07:45:31.509Z,100720.90
2023-05-01T07:47:59.805Z,100717.99
2023-05-01T07:50:27.981Z,100711.79
2023-05-01T07:52:56.196Z,100708.23
2023-05-01T07:55:24.830Z,100710.81
2023-05-01T07:57:52.865Z,100704.80
2023-05-01T08:00:21.107Z,100710.64
2023-05-01T08:02:49.240Z,100704.91
2023-05-01T08:05:17.385Z,100702.66
2023-05-01T08:07:45.544Z,100700.87
2023-05-01T08:10:13.850Z,100699.66
2023-05-01T08:12:41.940Z,100695.33
2023-05-01T08:15:10.095Z,100695.41
2023-05-01T08:17:38.461Z,100686.55
2023-05-01T08:20:07.293Z,100683.64
2023-05-01T08:22:35.480Z,100686.16
2023-05-01T08:25:04.841Z,100687.09
2023-05-01T08:27:33.900Z,100684.81
2023-05-01T08:30:01.997Z,100677.64
2023-05-01T08:32:30.240Z,100680.62
2023-05-01T08:34:58.393Z,100677.15
2023-05-01T08:37:26.933Z,100673.53
2023-05-01T08:39:55.105Z,100668.83
2023-05-01T08:42:23.664Z,100665.67
2023-05-01T08:44:54.619Z,100666.02
2023-05-01T08:47:22.880Z,100660.07
2023-05-01T08:49:52.507Z,100663.64
2023-05-01T08:52:22.315Z,100662.11
2023-05-01T08:54:54.717Z,100653.02
2023-05-01T08:57:24.198Z,100651.80
2023-05-01T08:59:53.760Z,100655.30
2023-05-01T09:02:33.929Z,100652.48
2023-05-01T09:05:04.126Z,100646.20
2023-05-01T09:07:35.562Z,100649.94
2023-05-01T09:10:04.303Z,100638.60
2023-05-01T09:12:35.880Z,100638.45
2023-05-01T09:15:04.572Z,100637.44
2023-05-01T09:17:33.211Z,100627.50
2023-05-01T09:20:08.027Z,100620.52
2023-05-01T09:22:36.669Z,100620.36
2023-05-01T09:25:05.221Z,100620.39
2023-05-01T09:27:38.245Z,100614.66
2023-05-01T09:30:07.732Z,100611.89
2023-05-01T09:32:42.462Z,100604.55
2023-05-01T09:35:14.920Z,100610.34
2023-05-01T09:37:43.983Z,100608.94
2023-05-01T09:40:16.332Z,100605.61
2023-05-01T09:43:01.698Z,100604.21
2023-05-01T09:45:30.194Z,100598.43
2023-05-01T09:48:36.132Z,100601.23
2023-05-01T09:51:57.316Z,100596.15
2023-05-01T09:54:29.076Z,100597.20
2023-05-01T09:57:17.102Z,100592.11
2023-05-01T10:00:10.625Z,100587.73
2023-05-01T10:02:46.012Z,100577.71
2023-05-01T10:05:20.617Z,100579.82
2023-05-01T10:08:27.725Z,100576.65
2023-05-01T10:16:31.344Z,100574.17
2023-05-01T11:00:04.134Z,100492.81
2023-05-01T11:03:20.998Z,100506.89
2023-05-01T11:06:10.288Z,100510.69
2023-05-01T11:08:41.444Z,100514.14
2023-05-01T11:11:28.439Z,100507.91
2023-05-01T11:14:06.464Z,100505.02
2023-05-01T11:16:46.094Z,100505.12
2023-05-01T11:19:29.841Z,100489.67
2023-05-01T11:22:14.777Z,100471.58
2023-05-01T11:24:43.502Z,100477.11
2023-05-01T11:27:14.296Z,100474.21
2023-05-01T11:30:20.886Z,100464.06
2023-05-01T11:33:22.050Z,100457.24
2023-05-01T11:36:27.918Z,100452.77
2023-05-01T11:39:25.158Z,100448.63
2023-05-01T11:42:13.328Z,100448.88
2023-05-01T11:48:31.225Z,100445.83
2023-05-01T11:51:02.134Z,100436.23
2023-05-01T11:53:47.709Z,100434.02
2023-05-01T11:56:26.910Z,100435.04
2023-05-01T11:59:18.479Z,100431.59
2023-05-01T12:01:55.366Z,100421.98
2023-05-01T12:04:32.321Z,100420.79
2023-05-01T12:07:39.490Z,100422.42
2023-05-01T12:10:08.608Z,100421.39
2023-05-01T12:12:36.934Z,100414.38
2023-05-01T12:15:05.831Z,100405.73
2023-05-01T12:17:36.850Z,100403.25
2023-05-01T12:20:06.071Z,100400.98
2023-05-01T12:22:34.441Z,100394.85
2023-05-01T12:25:04.500Z,100386.78
2023-05-01T12:27:33.063Z,100377.31
2023-05-01T12:30:03.717Z,100375.82
2023-05-01T12:32:33.756Z,100373.84
2023-05-01T12:35:13.376Z,100373.00
2023-05-01T12:37:41.555Z,100369.28
2023-05-01T12:40:17.193Z,100360.82
2023-05-01T12:42:54.627Z,100356.16
2023-05-01T12:45:23.583Z,100352.41
2023-05-01T12:47:52.186Z,100348.88
2023-05-01T12:50:21.001Z,100343.99
2023-05-01T12:52:49.714Z,100345.61
2023-05-01T12:55:17.989Z,100338.88
2023-05-01T12:57:54.927Z,100336.32
2023-05-01T13:00:23.587Z,100336.32
2023-05-01T13:02:51.948Z,100331.41
2023-05-01T13:05:20.164Z,100321.20
2023-05-01T13:07:49.784Z,100315.41
2023-05-01T13:10:29.434Z,100307.75
2023-05-01T13:12:57.757Z,100310.53
2023-05-01T13:15:26.011Z,100298.92
2023-05-01T13:17:54.278Z,100292.47
2023-05-01T13:20:29.645Z,100287.23
2023-05-01T13:22:57.850Z,100285.45
2023-05-01T13:25:26.178Z,100278.05
2023-05-01T13:27:54.510Z,100271.58
2023-05-01T13:30:33.060Z,100268.70
2023-05-01T13:33:02.089Z,100265.23
2023-05-01T13:35:31.753Z,100261.45
2023-05-01T13:38:03.445Z,100266.14
2023-05-01T13:40:34.288Z,100258.22
2023-05-01T13:43:03.143Z,100259.17
2023-05-01T13:45:31.428Z,100258.04
2023-05-01T13:47:59.593Z,100257.27
2023-05-01T13:50:28.329Z,100252.56
2023-05-01T13:52:56.614Z,100246.54
2023-05-01T13:55:24.877Z,100243.70
2023-05-01T13:57:53.229Z,100242.36
2023-05-01T14:00:22.654Z,100241.03
2023-05-01T14:02:53.301Z,100232.08
2023-05-01T14:05:27.649Z,100228.85
2023-05-01T14:07:58.463Z,100227.61
2023-05-01T14:10:29.098Z,100222.91
2023-05-01T14:12:59.025Z,100219.34
2023-05-01T14:15:31.693Z,100219.21
2023-05-01T14:18:20.838Z,100215.38
2023-05-01T14:20:49.049Z,100216.21
2023-05-01T14:23:17.322Z,100209.54
2023-05-01T14:25:46.704Z,100209.61
2023-05-01T14:28:15.538Z,100203.06
2023-05-01T14:30:44.009Z,100202.59
2023-05-01T14:33:13.355Z,100198.46
2023-05-01T14:57:10.902Z,100177.83
2023-05-01T14:59:41.136Z,100171.21
2023-05-01T15:06:08.424Z,100159.89
2023-05-01T15:10:15.033Z,100153.84
2023-05-01T15:13:15.268Z,100151.20
2023-05-01T15:22:14.469Z,100149.17
2023-05-01T15:29:17.850Z,100147.17
2023-05-01T15:40:36.074Z,100142.98
2023-05-01T15:43:19.257Z,100135.86
2023-05-01T15:46:25.670Z,100131.73
2023-05-01T15:49:16.191Z,100131.53
2023-05-01T15:51:48.788Z,100126.72
2023-05-01T15:54:40.234Z,100123.45
2023-05-01T15:57:52.595Z,100125.01
2023-05-01T16:00:43.216Z,100119.01
2023-05-01T16:04:18.172Z,100109.95
2023-05-01T16:06:49.024Z,100113.88
2023-05-01T16:09:25.958Z,100111.78
2023-05-01T16:18:19.799Z,100103.21
2023-05-01T16:21:12.879Z,100103.02
2023-05-01T16:28:13.094Z,100105.13
2023-05-01T16:30:59.637Z,100099.89
2023-05-01T16:37:29.179Z,100094.85
2023-05-01T16:39:59.992Z,100093.47
2023-05-01T16:42:28.758Z,100097.41
2023-05-01T16:44:58.714Z,100094.44
2023-05-01T16:47:26.927Z,100094.84
2023-05-01T16:50:00.685Z,100087.70
2023-05-01T16:52:29.170Z,100090.59
2023-05-01T16:54:59.082Z,100085.54
2023-05-01T16:57:30.162Z,100085.96
2023-05-01T17:00:03.214Z,100080.23
2023-05-01T17:02:31.892Z,100071.45
2023-05-01T17:05:00.489Z,100073.12
2023-05-01T17:07:28.768Z,100071.96
2023-05-01T17:09:57.060Z,100080.52
2023-05-01T17:12:25.810Z,100079.37
2023-05-01T17:14:54.315Z,100079.61
2023-05-01T17:17:23.471Z,100084.23
2023-05-01T17:19:52.775Z,100079.92
2023-05-01T17:22:20.988Z,100086.92
2023-05-01T17:24:50.745Z,100082.12
2023-05-01T17:27:18.736Z,100082.91
2023-05-01T17:29:47.182Z,100080.75
2023-05-01T17:32:20.331Z,100082.22
2023-05-01T17:35:01.567Z,100081.63
2023-05-01T17:37:29.651Z,100081.73
2023-05-01T17:39:58.101Z,100080.78
2023-05-01T17:42:26.559Z,100076.48
2023-05-01T17:44:54.673Z,100076.57
2023-05-01T17:47:25.320Z,100076.31
2023-05-01T17:49:54.721Z,100078.55
2023-05-01T17:52:22.991Z,100084.48
2023-05-01T17:54:51.399Z,100085.45
2023-05-01T17:57:19.746Z,100086.80
2023-05-01T17:59:48.092Z,100083.90
2023-05-01T18:02:16.433Z,100078.74
2023-05-01T18:04:46.046Z,100075.66
2023-05-01T18:07:14.241Z,100073.82
2023-05-01T18:09:42.618Z,100069.52
2023-05-01T18:12:11.415Z,100073.88
2023-05-01T18:14:39.827Z,100075.24
2023-05-01T18:17:08.268Z,100073.30
2023-05-01T18:19:36.474Z,100071.30
2023-05-01T18:22:05.990Z,100070.94
2023-05-01T18:24:42.697Z,100069.20
2023-05-01T18:27:12.392Z,100063.75
2023-05-01T18:29:40.849Z,100065.68
2023-05-01T18:32:12.757Z,100069.95
2023-05-01T18:34:42.351Z,100066.91
2023-05-01T18:37:10.600Z,100067.94
2023-05-01T18:39:39.287Z,100071.23
2023-05-01T18:42:07.461Z,100068.75
2023-05-01T18:44:35.668Z,100069.25
2023-05-01T18:47:04.377Z,100066.20
2023-05-01T18:49:32.948Z,100067.06
2023-05-01T18:52:22.502Z,100067.02
2023-05-01T18:55:00.142Z,100065.06
2023-05-01T18:57:31.899Z,100064.13
2023-05-01T19:00:01.467Z,100060.73
2023-05-01T19:02:51.681Z,100064.36
2023-05-01T19:05:41.572Z,100065.39
2023-05-01T19:08:11.194Z,100060.19
2023-05-01T19:10:43.961Z,100060.09
2023-05-01T19:13:12.461Z,100059.46
2023-05-01T19:15:42.287Z,100056.20
2023-05-01T19:18:37.552Z,100057.16
2023-05-01T19:21:06.111Z,100054.42
2023-05-01T19:23:35.671Z,100053.42
2023-05-01T19:26:05.121Z,100049.45
2023-05-01T19:28:33.722Z,100050.04
2023-05-01T19:31:02.558Z,100048.88
2023-05-01T19:33:32.064Z,100048.40
2023-05-01T19:36:00.908Z,100046.88
2023-05-01T19:38:29.888Z,100044.29
2023-05-01T19:40:58.278Z,100040.48
2023-05-01T19:43:26.741Z,100039.12
2023-05-01T19:45:55.269Z,100046.69
2023-05-01T19:48:23.857Z,100047.60
2023-05-01T19:50:52.210Z,100043.40
2023-05-01T19:53:21.233Z,100039.73
2023-05-01T19:55:50.942Z,100038.52
2023-05-01T19:58:19.539Z,100036.61
2023-05-01T20:00:48.482Z,100040.13
2023-05-01T20:03:17.733Z,100038.73
2023-05-01T20:05:46.345Z,100037.70
2023-05-01T20:08:15.315Z,100038.06
2023-05-01T20:10:43.713Z,100037.37
2023-05-01T20:13:12.037Z,100038.23
2023-05-01T20:15:43.331Z,100029.11
2023-05-01T20:18:13.348Z,100033.50
2023-05-01T20:20:41.985Z,100029.63
2023-05-01T20:23:11.216Z,100031.40
2023-05-01T20:25:40.111Z,100028.95
2023-05-01T20:28:10.667Z,100028.59
2023-05-01T20:30:41.855Z,100027.36
2023-05-01T20:33:10.203Z,100024.54
2023-05-01T20:35:39.488Z,100030.17
2023-05-01T20:38:07.741Z,100022.45
2023-05-01T20:40:40.345Z,100024.05
2023-05-01T20:43:09.943Z,100020.55
2023-05-01T20:45:39.813Z,100018.80
2023-05-01T20:48:09.918Z,100022.14
2023-05-01T20:51:07.677Z,100020.20
2023-05-01T20:53:35.964Z,100023.56
2023-05-01T20:56:04.783Z,100018.14
2023-05-01T20:58:35.727Z,100021.48
2023-05-01T21:01:05.731Z,100020.09
2023-05-01T21:03:35.182Z,100027.66
2023-05-01T21:06:05.062Z,100029.27
2023-05-01T21:08:34.698Z,100030.34
2023-05-01T21:11:03.590Z,100029.48
2023-05-01T21:13:32.461Z,100030.90
2023-05-01T21:16:01.567Z,100031.44
2023-05-01T21:18:34.497Z,100025.14
2023-05-01T21:21:03.898Z,100025.16
2023-05-01T21:23:32.217Z,100023.27
2023-05-01T21:26:00.824Z,100019.08
2023-05-01T21:28:29.361Z,100022.42
2023-05-01T21:31:00.045Z,100023.33
2023-05-01T21:33:30.664Z,100023.34
2023-05-01T21:35:59.219Z,100020.56
2023-05-01T21:38:29.986Z,100019.34
2023-05-01T21:41:06.337Z,100016.73
2023-05-01T21:43:36.016Z,100014.12
2023-05-01T21:46:04.455Z,100013.45
2023-05-01T21:48:35.243Z,100015.90
2023-05-01T21:51:03.988Z,100016.10
2023-05-01T21:53:32.680Z,100013.84
2023-05-01T21:56:01.232Z,100014.04
2023-05-01T21:58:29.396Z,100011.77
2023-05-01T22:00:59.675Z,100006.02
2023-05-01T22:03:27.914Z,100009.15
2023-05-01T22:05:56.117Z,100009.50
2023-05-01T22:08:29.752Z,100004.10
2023-05-01T22:10:58.268Z,100002.36
2023-05-01T22:13:33.298Z,100005.33
2023-05-01T22:16:01.712Z,100003.77
2023-05-01T22:18:30.421Z,100001.52
2023-05-01T22:21:00.254Z,99998.54
2023-05-01T22:23:28.413Z,99998.38
2023-05-01T22:26:01.568Z,99996.30
2023-05-01T22:28:29.760Z,99990.87
2023-05-01T22:30:58.034Z,99991.77
2023-05-01T22:33:26.232Z,99991.77
2023-05-01T22:35:54.422Z,99989.67
2023-05-01T22:38:22.634Z,99987.92
2023-05-01T22:40:50.800Z,99992.13
2023-05-01T22:43:19.281Z,99995.29
2023-05-01T22:45:48.341Z,99991.45
2023-05-01T22:48:17.096Z,99988.48
2023-05-01T22:50:45.345Z,99988.84
2023-05-01T22:53:13.802Z,99989.38
2023-05-01T22:55:41.907Z,99986.23
2023-05-01T22:58:10.086Z,99984.13
2023-05-01T23:00:38.301Z,99986.92
2023-05-01T23:03:06.832Z,99985.89
2023-05-01T23:05:35.897Z,99979.23
2023-05-01T23:08:04.130Z,99977.14
2023-05-01T23:10:33.798Z,99979.60
2023-05-01T23:13:02.250Z,99975.58
2023-05-01T23:15:30.424Z,99970.67
2023-05-01T23:17:58.623Z,99972.79
2023-05-01T23:20:26.783Z,99967.89
2023-05-01T23:22:54.850Z,99964.75
2023-05-01T23:25:26.942Z,99962.11
2023-05-01T23:27:56.626Z,99956.17
2023-05-01T23:30:24.893Z,99960.54
2023-05-01T23:32:59.518Z,99957.90
2023-05-01T23:35:27.783Z,99958.06
2023-05-01T23:37:56.090Z,99952.83
2023-05-01T23:40:24.325Z,99954.58
2023-05-01T23:42:53.098Z,99954.93
2023-05-01T23:45:21.245Z,99951.77
2023-05-01T23:47:49.325Z,99947.06
2023-05-01T23:50:18.204Z,99940.59
2023-05-01T23:52:46.752Z,99943.92
2023-05-01T23:55:14.827Z,99937.29
2023-05-01T23:57:43.130Z,99935.89
